sensor_id;sensor_type;location;lat;lon;timestamp;P1;durP1;ratioP1;P2;durP2;ratioP2
20629;SDS011;17386;43.846;25.950;2023-10-13T00:02:01;5.45;;;2.30;;
20629;SDS011;17386;43.846;25.950;2023-10-13T00:04:29;5.18;;;2.53;;
20629;SDS011;17386;43.846;25.950;2023-10-13T00:06:58;6.32;;;2.35;;
20629;SDS011;17386;43.846;25.950;2023-10-13T00:09:25;8.63;;;2.47;;
20629;SDS011;17386;43.846;25.950;2023-10-13T00:11:57;6.70;;;2.53;;
20629;SDS011;17386;43.846;25.950;2023-10-13T00:14:23;6.82;;;2.60;;
20629;SDS011;17386;43.846;25.950;2023-10-13T00:16:57;10.00;;;2.83;;
20629;SDS011;17386;43.846;25.950;2023-10-13T00:19:29;6.43;;;2.53;;
20629;SDS011;17386;43.846;25.950;2023-10-13T00:22:10;5.20;;;2.33;;
20629;SDS011;17386;43.846;25.950;2023-10-13T00:24:40;4.45;;;2.35;;
20629;SDS011;17386;43.846;25.950;2023-10-13T00:27:15;6.47;;;2.20;;
20629;SDS011;17386;43.846;25.950;2023-10-13T00:30:04;4.38;;;2.47;;
20629;SDS011;17386;43.846;25.950;2023-10-13T00:32:42;4.03;;;2.15;;
20629;SDS011;17386;43.846;25.950;2023-10-13T00:35:17;5.72;;;2.40;;
20629;SDS011;17386;43.846;25.950;2023-10-13T00:37:54;4.18;;;1.95;;
20629;SDS011;17386;43.846;25.950;2023-10-13T00:40:22;3.47;;;1.92;;
20629;SDS011;17386;43.846;25.950;2023-10-13T00:43:00;5.43;;;1.90;;
20629;SDS011;17386;43.846;25.950;2023-10-13T00:45:50;4.35;;;2.10;;
20629;SDS011;17386;43.846;25.950;2023-10-13T00:48:23;5.72;;;2.28;;
20629;SDS011;17386;43.846;25.950;2023-10-13T00:53:31;5.47;;;2.22;;
20629;SDS011;17386;43.846;25.950;2023-10-13T00:56:05;4.43;;;2.47;;
20629;SDS011;17386;43.846;25.950;2023-10-13T00:58:52;5.28;;;2.00;;
20629;SDS011;17386;43.846;25.950;2023-10-13T01:01:19;6.25;;;2.28;;
20629;SDS011;17386;43.846;25.950;2023-10-13T01:03:53;6.40;;;2.60;;
20629;SDS011;17386;43.846;25.950;2023-10-13T01:06:28;9.68;;;2.92;;
20629;SDS011;17386;43.846;25.950;2023-10-13T01:09:00;42.17;;;4.15;;
20629;SDS011;17386;43.846;25.950;2023-10-13T01:11:36;7.80;;;2.10;;
20629;SDS011;17386;43.846;25.950;2023-10-13T01:14:02;5.40;;;2.05;;
20629;SDS011;17386;43.846;25.950;2023-10-13T01:16:29;7.53;;;2.13;;
20629;SDS011;17386;43.846;25.950;2023-10-13T01:18:55;9.25;;;2.35;;
20629;SDS011;17386;43.846;25.950;2023-10-13T01:21:24;5.35;;;1.90;;
20629;SDS011;17386;43.846;25.950;2023-10-13T01:23:53;5.07;;;2.17;;
20629;SDS011;17386;43.846;25.950;2023-10-13T01:26:18;6.35;;;2.42;;
20629;SDS011;17386;43.846;25.950;2023-10-13T01:28:51;5.65;;;2.40;;
20629;SDS011;17386;43.846;25.950;2023-10-13T01:31:21;5.90;;;2.35;;
20629;SDS011;17386;43.846;25.950;2023-10-13T01:33:52;4.70;;;2.30;;
20629;SDS011;17386;43.846;25.950;2023-10-13T01:38:48;9.77;;;2.63;;
20629;SDS011;17386;43.846;25.950;2023-10-13T01:41:15;6.93;;;2.78;;
20629;SDS011;17386;43.846;25.950;2023-10-13T01:43:41;4.70;;;2.42;;
20629;SDS011;17386;43.846;25.950;2023-10-13T01:46:07;6.28;;;2.13;;
20629;SDS011;17386;43.846;25.950;2023-10-13T01:51:04;6.40;;;2.33;;
20629;SDS011;17386;43.846;25.950;2023-10-13T01:53:34;5.18;;;2.28;;
20629;SDS011;17386;43.846;25.950;2023-10-13T01:56:01;4.22;;;2.38;;
20629;SDS011;17386;43.846;25.950;2023-10-13T01:58:35;7.82;;;2.38;;
20629;SDS011;17386;43.846;25.950;2023-10-13T02:01:00;5.00;;;2.28;;
20629;SDS011;17386;43.846;25.950;2023-10-13T02:03:26;4.88;;;2.40;;
20629;SDS011;17386;43.846;25.950;2023-10-13T02:05:55;3.90;;;2.40;;
20629;SDS011;17386;43.846;25.950;2023-10-13T02:08:23;5.25;;;2.40;;
20629;SDS011;17386;43.846;25.950;2023-10-13T02:10:52;9.85;;;2.20;;
20629;SDS011;17386;43.846;25.950;2023-10-13T02:13:21;4.35;;;2.10;;
20629;SDS011;17386;43.846;25.950;2023-10-13T02:15:49;5.25;;;2.28;;
20629;SDS011;17386;43.846;25.950;2023-10-13T02:18:19;9.00;;;2.10;;
20629;SDS011;17386;43.846;25.950;2023-10-13T02:21:06;4.28;;;2.08;;
20629;SDS011;17386;43.846;25.950;2023-10-13T02:23:41;7.57;;;2.20;;
20629;SDS011;17386;43.846;25.950;2023-10-13T02:26:10;5.57;;;2.50;;
20629;SDS011;17386;43.846;25.950;2023-10-13T02:28:41;4.25;;;2.20;;
20629;SDS011;17386;43.846;25.950;2023-10-13T02:31:09;6.63;;;2.13;;
20629;SDS011;17386;43.846;25.950;2023-10-13T02:33:36;7.88;;;2.13;;
20629;SDS011;17386;43.846;25.950;2023-10-13T02:36:10;7.22;;;2.30;;
20629;SDS011;17386;43.846;25.950;2023-10-13T02:38:37;3.38;;;1.85;;
20629;SDS011;17386;43.846;25.950;2023-10-13T02:41:12;3.92;;;2.33;;
20629;SDS011;17386;43.846;25.950;2023-10-13T02:43:45;7.30;;;2.08;;
20629;SDS011;17386;43.846;25.950;2023-10-13T02:46:11;10.13;;;2.60;;
20629;SDS011;17386;43.846;25.950;2023-10-13T02:48:36;4.22;;;2.20;;
20629;SDS011;17386;43.846;25.950;2023-10-13T02:51:11;4.53;;;2.30;;
20629;SDS011;17386;43.846;25.950;2023-10-13T02:53:46;5.93;;;2.10;;
20629;SDS011;17386;43.846;25.950;2023-10-13T02:56:14;4.90;;;2.03;;
20629;SDS011;17386;43.846;25.950;2023-10-13T02:58:46;7.25;;;2.30;;
20629;SDS011;17386;43.846;25.950;2023-10-13T03:01:18;5.45;;;2.40;;
20629;SDS011;17386;43.846;25.950;2023-10-13T03:03:49;5.25;;;2.25;;
20629;SDS011;17386;43.846;25.950;2023-10-13T03:06:17;5.15;;;2.50;;
20629;SDS011;17386;43.846;25.950;2023-10-13T03:08:47;5.00;;;2.58;;
20629;SDS011;17386;43.846;25.950;2023-10-13T03:11:12;6.80;;;2.63;;
20629;SDS011;17386;43.846;25.950;2023-10-13T03:13:39;6.90;;;2.22;;
20629;SDS011;17386;43.846;25.950;2023-10-13T03:16:16;5.15;;;2.70;;
20629;SDS011;17386;43.846;25.950;2023-10-13T03:18:48;8.70;;;3.30;;
20629;SDS011;17386;43.846;25.950;2023-10-13T03:21:19;7.63;;;3.35;;
20629;SDS011;17386;43.846;25.950;2023-10-13T03:23:55;9.40;;;3.17;;
20629;SDS011;17386;43.846;25.950;2023-10-13T03:26:21;9.32;;;3.28;;
20629;SDS011;17386;43.846;25.950;2023-10-13T03:28:47;6.68;;;3.42;;
20629;SDS011;17386;43.846;25.950;2023-10-13T03:31:19;8.45;;;3.92;;
20629;SDS011;17386;43.846;25.950;2023-10-13T03:33:48;9.05;;;3.40;;
20629;SDS011;17386;43.846;25.950;2023-10-13T03:36:14;5.15;;;3.10;;
20629;SDS011;17386;43.846;25.950;2023-10-13T03:38:59;7.70;;;2.70;;
20629;SDS011;17386;43.846;25.950;2023-10-13T03:41:25;9.23;;;2.80;;
20629;SDS011;17386;43.846;25.950;2023-10-13T03:43:55;8.55;;;2.55;;
20629;SDS011;17386;43.846;25.950;2023-10-13T03:46:34;9.57;;;2.70;;
20629;SDS011;17386;43.846;25.950;2023-10-13T03:49:01;5.72;;;2.40;;
20629;SDS011;17386;43.846;25.950;2023-10-13T03:51:30;7.72;;;2.42;;
20629;SDS011;17386;43.846;25.950;2023-10-13T03:53:56;5.15;;;2.67;;
20629;SDS011;17386;43.846;25.950;2023-10-13T03:56:22;7.38;;;2.30;;
20629;SDS011;17386;43.846;25.950;2023-10-13T03:59:04;6.25;;;2.90;;
20629;SDS011;17386;43.846;25.950;2023-10-13T04:04:00;4.10;;;2.42;;
20629;SDS011;17386;43.846;25.950;2023-10-13T04:06:32;6.32;;;2.50;;
20629;SDS011;17386;43.846;25.950;2023-10-13T04:09:27;5.80;;;2.45;;
20629;SDS011;17386;43.846;25.950;2023-10-13T04:14:35;6.15;;;2.35;;
20629;SDS011;17386;43.846;25.950;2023-10-13T04:17:37;7.25;;;2.70;;
20629;SDS011;17386;43.846;25.950;2023-10-13T04:20:09;4.28;;;2.30;;
20629;SDS011;17386;43.846;25.950;2023-10-13T04:22:35;9.45;;;2.78;;
20629;SDS011;17386;43.846;25.950;2023-10-13T04:25:13;8.77;;;3.00;;
20629;SDS011;17386;43.846;25.950;2023-10-13T04:28:04;5.20;;;2.38;;
20629;SDS011;17386;43.846;25.950;2023-10-13T04:30:50;6.20;;;2.80;;
20629;SDS011;17386;43.846;25.950;2023-10-13T04:36:12;7.75;;;2.83;;
20629;SDS011;17386;43.846;25.950;2023-10-13T04:38:46;7.07;;;2.75;;
20629;SDS011;17386;43.846;25.950;2023-10-13T04:41:26;7.82;;;3.13;;
20629;SDS011;17386;43.846;25.950;2023-10-13T04:44:09;9.45;;;2.55;;
20629;SDS011;17386;43.846;25.950;2023-10-13T04:46:54;7.07;;;2.50;;
20629;SDS011;17386;43.846;25.950;2023-10-13T04:49:27;8.57;;;2.75;;
20629;SDS011;17386;43.846;25.950;2023-10-13T04:51:58;11.45;;;3.83;;
20629;SDS011;17386;43.846;25.950;2023-10-13T04:54:26;9.07;;;3.40;;
20629;SDS011;17386;43.846;25.950;2023-10-13T04:57:16;14.38;;;3.13;;
20629;SDS011;17386;43.846;25.950;2023-10-13T05:00:03;13.32;;;2.85;;
20629;SDS011;17386;43.846;25.950;2023-10-13T05:02:55;10.30;;;3.00;;
20629;SDS011;17386;43.846;25.950;2023-10-13T05:05:41;6.05;;;2.72;;
20629;SDS011;17386;43.846;25.950;2023-10-13T05:08:26;6.40;;;3.22;;
20629;SDS011;17386;43.846;25.950;2023-10-13T05:11:10;9.38;;;3.05;;
20629;SDS011;17386;43.846;25.950;2023-10-13T05:13:54;19.27;;;3.30;;
20629;SDS011;17386;43.846;25.950;2023-10-13T05:16:38;7.57;;;2.58;;
20629;SDS011;17386;43.846;25.950;2023-10-13T05:19:22;14.68;;;4.32;;
20629;SDS011;17386;43.846;25.950;2023-10-13T05:22:06;7.57;;;2.78;;
20629;SDS011;17386;43.846;25.950;2023-10-13T05:24:49;7.88;;;2.80;;
20629;SDS011;17386;43.846;25.950;2023-10-13T05:27:33;5.25;;;2.60;;
20629;SDS011;17386;43.846;25.950;2023-10-13T05:30:17;11.63;;;3.88;;
20629;SDS011;17386;43.846;25.950;2023-10-13T05:33:01;20.50;;;3.22;;
20629;SDS011;17386;43.846;25.950;2023-10-13T05:35:45;15.20;;;3.42;;
20629;SDS011;17386;43.846;25.950;2023-10-13T05:38:29;9.55;;;3.15;;
20629;SDS011;17386;43.846;25.950;2023-10-13T05:41:13;7.80;;;2.63;;
20629;SDS011;17386;43.846;25.950;2023-10-13T05:43:57;8.48;;;3.22;;
20629;SDS011;17386;43.846;25.950;2023-10-13T05:46:41;14.15;;;3.42;;
20629;SDS011;17386;43.846;25.950;2023-10-13T05:49:35;15.70;;;3.65;;
20629;SDS011;17386;43.846;25.950;2023-10-13T05:52:24;12.85;;;3.33;;
20629;SDS011;17386;43.846;25.950;2023-10-13T05:55:08;15.52;;;3.33;;
20629;SDS011;17386;43.846;25.950;2023-10-13T05:57:52;15.13;;;3.00;;
20629;SDS011;17386;43.846;25.950;2023-10-13T06:00:39;19.95;;;3.80;;
20629;SDS011;17386;43.846;25.950;2023-10-13T06:03:23;8.20;;;3.30;;
20629;SDS011;17386;43.846;25.950;2023-10-13T06:06:07;14.55;;;3.33;;
20629;SDS011;17386;43.846;25.950;2023-10-13T06:08:51;16.55;;;3.30;;
20629;SDS011;17386;43.846;25.950;2023-10-13T06:11:35;6.78;;;2.92;;
20629;SDS011;17386;43.846;25.950;2023-10-13T06:14:36;13.07;;;3.03;;
20629;SDS011;17386;43.846;25.950;2023-10-13T06:17:20;8.73;;;3.00;;
20629;SDS011;17386;43.846;25.950;2023-10-13T06:20:05;15.20;;;3.70;;
20629;SDS011;17386;43.846;25.950;2023-10-13T06:22:49;9.75;;;3.45;;
20629;SDS011;17386;43.846;25.950;2023-10-13T06:25:34;18.65;;;5.32;;
20629;SDS011;17386;43.846;25.950;2023-10-13T06:28:18;11.48;;;4.00;;
20629;SDS011;17386;43.846;25.950;2023-10-13T06:31:03;12.25;;;3.42;;
20629;SDS011;17386;43.846;25.950;2023-10-13T06:33:33;9.75;;;3.33;;
20629;SDS011;17386;43.846;25.950;2023-10-13T06:36:03;9.90;;;3.10;;
20629;SDS011;17386;43.846;25.950;2023-10-13T06:38:33;19.38;;;4.05;;
20629;SDS011;17386;43.846;25.950;2023-10-13T06:41:02;10.98;;;3.78;;
20629;SDS011;17386;43.846;25.950;2023-10-13T06:43:31;11.20;;;3.10;;
20629;SDS011;17386;43.846;25.950;2023-10-13T06:45:57;13.32;;;4.22;;
20629;SDS011;17386;43.846;25.950;2023-10-13T06:48:26;12.15;;;3.88;;
20629;SDS011;17386;43.846;25.950;2023-10-13T06:50:52;19.65;;;4.38;;
20629;SDS011;17386;43.846;25.950;2023-10-13T06:53:18;14.00;;;4.00;;
20629;SDS011;17386;43.846;25.950;2023-10-13T06:55:44;13.45;;;4.38;;
20629;SDS011;17386;43.846;25.950;2023-10-13T06:58:12;12.63;;;4.00;;
20629;SDS011;17386;43.846;25.950;2023-10-13T07:00:42;16.45;;;4.70;;
20629;SDS011;17386;43.846;25.950;2023-10-13T07:03:18;18.27;;;4.68;;
20629;SDS011;17386;43.846;25.950;2023-10-13T07:05:52;12.25;;;3.67;;
20629;SDS011;17386;43.846;25.950;2023-10-13T07:08:18;11.02;;;3.47;;
20629;SDS011;17386;43.846;25.950;2023-10-13T07:10:52;7.38;;;3.55;;
20629;SDS011;17386;43.846;25.950;2023-10-13T07:13:30;8.95;;;3.40;;
20629;SDS011;17386;43.846;25.950;2023-10-13T07:15:55;7.47;;;3.30;;
20629;SDS011;17386;43.846;25.950;2023-10-13T07:18:25;9.27;;;3.33;;
20629;SDS011;17386;43.846;25.950;2023-10-13T07:20:51;8.20;;;3.25;;
20629;SDS011;17386;43.846;25.950;2023-10-13T07:23:22;8.93;;;2.90;;
20629;SDS011;17386;43.846;25.950;2023-10-13T07:25:52;7.88;;;3.00;;
20629;SDS011;17386;43.846;25.950;2023-10-13T07:28:21;13.15;;;3.50;;
20629;SDS011;17386;43.846;25.950;2023-10-13T07:30:47;6.72;;;3.00;;
20629;SDS011;17386;43.846;25.950;2023-10-13T07:33:18;7.57;;;3.22;;
20629;SDS011;17386;43.846;25.950;2023-10-13T07:35:48;10.38;;;4.05;;
20629;SDS011;17386;43.846;25.950;2023-10-13T07:38:24;11.27;;;3.83;;
20629;SDS011;17386;43.846;25.950;2023-10-13T07:40:56;7.90;;;3.30;;
20629;SDS011;17386;43.846;25.950;2023-10-13T07:43:32;12.45;;;3.53;;
20629;SDS011;17386;43.846;25.950;2023-10-13T07:45:58;6.40;;;2.65;;
20629;SDS011;17386;43.846;25.950;2023-10-13T07:48:24;16.48;;;3.80;;
20629;SDS011;17386;43.846;25.950;2023-10-13T07:51:06;9.52;;;3.47;;
20629;SDS011;17386;43.846;25.950;2023-10-13T07:53:41;8.75;;;3.92;;
20629;SDS011;17386;43.846;25.950;2023-10-13T07:58:34;7.47;;;3.08;;
20629;SDS011;17386;43.846;25.950;2023-10-13T08:01:12;9.30;;;4.18;;
20629;SDS011;17386;43.846;25.950;2023-10-13T08:03:42;8.20;;;3.53;;
20629;SDS011;17386;43.846;25.950;2023-10-13T08:06:11;9.95;;;3.85;;
20629;SDS011;17386;43.846;25.950;2023-10-13T08:08:38;7.97;;;4.15;;
20629;SDS011;17386;43.846;25.950;2023-10-13T08:11:07;9.95;;;3.97;;
20629;SDS011;17386;43.846;25.950;2023-10-13T08:13:39;9.32;;;3.90;;
20629;SDS011;17386;43.846;25.950;2023-10-13T08:16:14;9.35;;;4.47;;
20629;SDS011;17386;43.846;25.950;2023-10-13T08:18:49;14.88;;;5.60;;
20629;SDS011;17386;43.846;25.950;2023-10-13T08:21:18;7.50;;;4.50;;
20629;SDS011;17386;43.846;25.950;2023-10-13T08:23:56;16.20;;;5.43;;
20629;SDS011;17386;43.846;25.950;2023-10-13T08:26:23;13.80;;;4.78;;
20629;SDS011;17386;43.846;25.950;2023-10-13T08:29:02;12.82;;;4.95;;
20629;SDS011;17386;43.846;25.950;2023-10-13T08:31:47;24.00;;;5.50;;
20629;SDS011;17386;43.846;25.950;2023-10-13T08:34:32;12.10;;;5.25;;
20629;SDS011;17386;43.846;25.950;2023-10-13T08:37:28;14.45;;;4.88;;
20629;SDS011;17386;43.846;25.950;2023-10-13T08:39:58;11.35;;;5.00;;
20629;SDS011;17386;43.846;25.950;2023-10-13T08:42:31;11.65;;;4.72;;
20629;SDS011;17386;43.846;25.950;2023-10-13T08:47:54;12.30;;;5.32;;
20629;SDS011;17386;43.846;25.950;2023-10-13T08:53:20;13.90;;;4.53;;
20629;SDS011;17386;43.846;25.950;2023-10-13T08:56:07;14.32;;;4.72;;
20629;SDS011;17386;43.846;25.950;2023-10-13T08:58:46;13.52;;;4.82;;
20629;SDS011;17386;43.846;25.950;2023-10-13T09:01:21;9.45;;;4.28;;
20629;SDS011;17386;43.846;25.950;2023-10-13T09:04:10;10.65;;;4.32;;
20629;SDS011;17386;43.846;25.950;2023-10-13T09:06:50;11.93;;;4.57;;
20629;SDS011;17386;43.846;25.950;2023-10-13T09:09:33;10.52;;;4.65;;
20629;SDS011;17386;43.846;25.950;2023-10-13T09:15:02;12.15;;;4.30;;
20629;SDS011;17386;43.846;25.950;2023-10-13T09:17:30;9.48;;;4.78;;
20629;SDS011;17386;43.846;25.950;2023-10-13T09:22:48;14.60;;;4.68;;
20629;SDS011;17386;43.846;25.950;2023-10-13T09:25:32;12.30;;;4.57;;
20629;SDS011;17386;43.846;25.950;2023-10-13T09:28:03;12.07;;;5.32;;
20629;SDS011;17386;43.846;25.950;2023-10-13T09:30:46;16.90;;;5.70;;
20629;SDS011;17386;43.846;25.950;2023-10-13T09:33:12;16.13;;;5.43;;
20629;SDS011;17386;43.846;25.950;2023-10-13T09:35:44;10.48;;;5.07;;
20629;SDS011;17386;43.846;25.950;2023-10-13T09:38:16;13.82;;;4.82;;
20629;SDS011;17386;43.846;25.950;2023-10-13T09:40:42;9.65;;;5.15;;
20629;SDS011;17386;43.846;25.950;2023-10-13T09:43:17;13.27;;;4.97;;
20629;SDS011;17386;43.846;25.950;2023-10-13T09:45:45;9.98;;;5.28;;
20629;SDS011;17386;43.846;25.950;2023-10-13T09:48:34;12.60;;;5.28;;
20629;SDS011;17386;43.846;25.950;2023-10-13T09:51:05;15.18;;;4.80;;
20629;SDS011;17386;43.846;25.950;2023-10-13T09:53:37;12.00;;;5.30;;
20629;SDS011;17386;43.846;25.950;2023-10-13T09:56:09;12.07;;;7.35;;
20629;SDS011;17386;43.846;25.950;2023-10-13T09:58:48;11.70;;;4.82;;
20629;SDS011;17386;43.846;25.950;2023-10-13T10:01:19;15.90;;;5.65;;
20629;SDS011;17386;43.846;25.950;2023-10-13T10:04:05;9.77;;;5.20;;
20629;SDS011;17386;43.846;25.950;2023-10-13T10:06:51;19.30;;;4.65;;
20629;SDS011;17386;43.846;25.950;2023-10-13T10:09:27;9.48;;;5.00;;
20629;SDS011;17386;43.846;25.950;2023-10-13T10:15:29;15.38;;;5.35;;
20629;SDS011;17386;43.846;25.950;2023-10-13T10:18:01;14.25;;;5.93;;
20629;SDS011;17386;43.846;25.950;2023-10-13T10:20:29;14.10;;;5.38;;
20629;SDS011;17386;43.846;25.950;2023-10-13T10:23:05;12.98;;;6.55;;
20629;SDS011;17386;43.846;25.950;2023-10-13T10:25:35;18.20;;;8.43;;
20629;SDS011;17386;43.846;25.950;2023-10-13T10:28:02;17.40;;;9.13;;
20629;SDS011;17386;43.846;25.950;2023-10-13T10:30:33;17.40;;;10.07;;
20629;SDS011;17386;43.846;25.950;2023-10-13T10:33:01;24.05;;;10.88;;
20629;SDS011;17386;43.846;25.950;2023-10-13T10:35:57;18.17;;;9.52;;
20629;SDS011;17386;43.846;25.950;2023-10-13T10:38:24;20.42;;;9.70;;
20629;SDS011;17386;43.846;25.950;2023-10-13T10:40:58;22.23;;;7.18;;
20629;SDS011;17386;43.846;25.950;2023-10-13T10:46:25;15.85;;;6.90;;
20629;SDS011;17386;43.846;25.950;2023-10-13T10:48:51;14.93;;;5.93;;
20629;SDS011;17386;43.846;25.950;2023-10-13T10:51:21;11.57;;;5.25;;
20629;SDS011;17386;43.846;25.950;2023-10-13T10:53:50;14.30;;;5.47;;
20629;SDS011;17386;43.846;25.950;2023-10-13T10:56:18;9.38;;;5.50;;
20629;SDS011;17386;43.846;25.950;2023-10-13T10:59:08;10.80;;;6.32;;
20629;SDS011;17386;43.846;25.950;2023-10-13T11:01:43;10.75;;;5.30;;
20629;SDS011;17386;43.846;25.950;2023-10-13T11:04:16;13.60;;;5.88;;
20629;SDS011;17386;43.846;25.950;2023-10-13T11:06:52;17.55;;;6.07;;
20629;SDS011;17386;43.846;25.950;2023-10-13T11:12:18;12.07;;;5.40;;
20629;SDS011;17386;43.846;25.950;2023-10-13T11:15:01;8.43;;;5.22;;
20629;SDS011;17386;43.846;25.950;2023-10-13T11:17:34;9.00;;;4.68;;
20629;SDS011;17386;43.846;25.950;2023-10-13T11:20:16;18.30;;;5.15;;
20629;SDS011;17386;43.846;25.950;2023-10-13T11:22:49;10.90;;;4.95;;
20629;SDS011;17386;43.846;25.950;2023-10-13T11:25:26;9.98;;;5.68;;
20629;SDS011;17386;43.846;25.950;2023-10-13T11:27:55;12.52;;;5.00;;
20629;SDS011;17386;43.846;25.950;2023-10-13T11:30:24;19.45;;;6.40;;
20629;SDS011;17386;43.846;25.950;2023-10-13T11:32:57;16.65;;;5.88;;
20629;SDS011;17386;43.846;25.950;2023-10-13T11:35:23;13.73;;;5.97;;
20629;SDS011;17386;43.846;25.950;2023-10-13T11:37:49;10.98;;;5.28;;
20629;SDS011;17386;43.846;25.950;2023-10-13T11:40:33;19.52;;;6.10;;
20629;SDS011;17386;43.846;25.950;2023-10-13T11:43:25;16.40;;;6.88;;
20629;SDS011;17386;43.846;25.950;2023-10-13T11:45:51;17.40;;;7.13;;
20629;SDS011;17386;43.846;25.950;2023-10-13T11:48:41;13.15;;;5.30;;
20629;SDS011;17386;43.846;25.950;2023-10-13T11:51:09;12.57;;;5.88;;
20629;SDS011;17386;43.846;25.950;2023-10-13T11:54:05;10.73;;;5.63;;
20629;SDS011;17386;43.846;25.950;2023-10-13T11:56:30;15.73;;;6.13;;
20629;SDS011;17386;43.846;25.950;2023-10-13T11:58:56;15.55;;;6.28;;
20629;SDS011;17386;43.846;25.950;2023-10-13T12:01:27;20.45;;;7.60;;
20629;SDS011;17386;43.846;25.950;2023-10-13T12:04:13;17.58;;;6.25;;
20629;SDS011;17386;43.846;25.950;2023-10-13T12:06:57;11.90;;;6.38;;
20629;SDS011;17386;43.846;25.950;2023-10-13T12:09:43;16.15;;;6.30;;
20629;SDS011;17386;43.846;25.950;2023-10-13T12:12:41;13.75;;;5.97;;
20629;SDS011;17386;43.846;25.950;2023-10-13T12:15:08;18.50;;;5.90;;
20629;SDS011;17386;43.846;25.950;2023-10-13T12:17:35;12.50;;;5.38;;
20629;SDS011;17386;43.846;25.950;2023-10-13T12:20:01;13.90;;;5.68;;
20629;SDS011;17386;43.846;25.950;2023-10-13T12:22:30;17.00;;;6.30;;
20629;SDS011;17386;43.846;25.950;2023-10-13T12:25:10;21.40;;;7.07;;
20629;SDS011;17386;43.846;25.950;2023-10-13T12:27:59;20.35;;;6.00;;
20629;SDS011;17386;43.846;25.950;2023-10-13T12:30:43;14.43;;;5.78;;
20629;SDS011;17386;43.846;25.950;2023-10-13T12:33:19;15.48;;;6.40;;
20629;SDS011;17386;43.846;25.950;2023-10-13T12:36:05;19.67;;;7.05;;
20629;SDS011;17386;43.846;25.950;2023-10-13T12:38:36;16.95;;;6.22;;
20629;SDS011;17386;43.846;25.950;2023-10-13T12:41:22;17.10;;;8.13;;
20629;SDS011;17386;43.846;25.950;2023-10-13T12:44:06;18.23;;;7.65;;
20629;SDS011;17386;43.846;25.950;2023-10-13T12:46:51;12.77;;;6.25;;
20629;SDS011;17386;43.846;25.950;2023-10-13T12:49:36;12.80;;;6.25;;
20629;SDS011;17386;43.846;25.950;2023-10-13T12:52:07;12.68;;;6.82;;
20629;SDS011;17386;43.846;25.950;2023-10-13T12:54:50;22.90;;;6.70;;
20629;SDS011;17386;43.846;25.950;2023-10-13T12:57:25;13.25;;;6.43;;
20629;SDS011;17386;43.846;25.950;2023-10-13T12:59:51;20.42;;;6.80;;
20629;SDS011;17386;43.846;25.950;2023-10-13T13:02:22;19.05;;;6.43;;
20629;SDS011;17386;43.846;25.950;2023-10-13T13:04:50;19.70;;;7.38;;
20629;SDS011;17386;43.846;25.950;2023-10-13T13:07:31;13.80;;;6.38;;
20629;SDS011;17386;43.846;25.950;2023-10-13T13:10:08;18.48;;;6.97;;
20629;SDS011;17386;43.846;25.950;2023-10-13T13:12:34;18.30;;;7.30;;
20629;SDS011;17386;43.846;25.950;2023-10-13T13:14:59;16.23;;;7.50;;
20629;SDS011;17386;43.846;25.950;2023-10-13T13:17:25;13.35;;;6.78;;
20629;SDS011;17386;43.846;25.950;2023-10-13T13:19:50;16.42;;;6.85;;
20629;SDS011;17386;43.846;25.950;2023-10-13T13:22:16;17.60;;;7.35;;
20629;SDS011;17386;43.846;25.950;2023-10-13T13:24:43;18.80;;;7.97;;
20629;SDS011;17386;43.846;25.950;2023-10-13T13:27:12;25.45;;;10.38;;
20629;SDS011;17386;43.846;25.950;2023-10-13T13:29:40;19.50;;;8.52;;
20629;SDS011;17386;43.846;25.950;2023-10-13T13:32:06;19.52;;;7.90;;
20629;SDS011;17386;43.846;25.950;2023-10-13T13:34:42;19.67;;;8.35;;
20629;SDS011;17386;43.846;25.950;2023-10-13T13:37:07;20.33;;;7.13;;
20629;SDS011;17386;43.846;25.950;2023-10-13T13:39:32;18.58;;;6.22;;
20629;SDS011;17386;43.846;25.950;2023-10-13T13:41:58;17.25;;;7.50;;
20629;SDS011;17386;43.846;25.950;2023-10-13T13:44:24;18.27;;;7.60;;
20629;SDS011;17386;43.846;25.950;2023-10-13T13:47:00;21.00;;;7.07;;
20629;SDS011;17386;43.846;25.950;2023-10-13T13:49:30;16.50;;;6.93;;
20629;SDS011;17386;43.846;25.950;2023-10-13T13:52:05;19.95;;;7.05;;
20629;SDS011;17386;43.846;25.950;2023-10-13T13:54:31;16.15;;;7.00;;
20629;SDS011;17386;43.846;25.950;2023-10-13T13:56:56;15.18;;;6.55;;
20629;SDS011;17386;43.846;25.950;2023-10-13T13:59:22;19.77;;;6.90;;
20629;SDS011;17386;43.846;25.950;2023-10-13T14:01:48;17.48;;;5.97;;
20629;SDS011;17386;43.846;25.950;2023-10-13T14:04:13;22.38;;;7.00;;
20629;SDS011;17386;43.846;25.950;2023-10-13T14:06:42;17.48;;;6.63;;
20629;SDS011;17386;43.846;25.950;2023-10-13T14:09:09;19.13;;;7.28;;
20629;SDS011;17386;43.846;25.950;2023-10-13T14:11:40;19.85;;;7.20;;
20629;SDS011;17386;43.846;25.950;2023-10-13T14:14:12;22.00;;;8.57;;
20629;SDS011;17386;43.846;25.950;2023-10-13T14:17:05;18.55;;;8.73;;
20629;SDS011;17386;43.846;25.950;2023-10-13T14:19:34;14.02;;;6.70;;
20629;SDS011;17386;43.846;25.950;2023-10-13T14:22:05;18.77;;;7.60;;
20629;SDS011;17386;43.846;25.950;2023-10-13T14:24:37;27.95;;;11.02;;
20629;SDS011;17386;43.846;25.950;2023-10-13T14:27:08;32.60;;;12.88;;
20629;SDS011;17386;43.846;25.950;2023-10-13T14:29:36;30.70;;;12.93;;
20629;SDS011;17386;43.846;25.950;2023-10-13T14:32:12;30.70;;;14.25;;
20629;SDS011;17386;43.846;25.950;2023-10-13T14:34:40;26.88;;;11.63;;
20629;SDS011;17386;43.846;25.950;2023-10-13T14:37:07;46.28;;;15.98;;
20629;SDS011;17386;43.846;25.950;2023-10-13T14:39:33;43.00;;;15.23;;
20629;SDS011;17386;43.846;25.950;2023-10-13T14:42:01;43.75;;;19.55;;
20629;SDS011;17386;43.846;25.950;2023-10-13T14:44:27;50.30;;;18.50;;
20629;SDS011;17386;43.846;25.950;2023-10-13T14:46:53;35.72;;;16.38;;
20629;SDS011;17386;43.846;25.950;2023-10-13T14:49:21;31.65;;;14.60;;
20629;SDS011;17386;43.846;25.950;2023-10-13T14:51:47;28.85;;;11.25;;
20629;SDS011;17386;43.846;25.950;2023-10-13T14:54:14;24.80;;;10.50;;
20629;SDS011;17386;43.846;25.950;2023-10-13T14:56:40;31.60;;;12.38;;
20629;SDS011;17386;43.846;25.950;2023-10-13T14:59:07;22.85;;;10.57;;
20629;SDS011;17386;43.846;25.950;2023-10-13T15:01:39;22.58;;;9.57;;
20629;SDS011;17386;43.846;25.950;2023-10-13T15:04:05;31.27;;;9.98;;
20629;SDS011;17386;43.846;25.950;2023-10-13T15:06:31;23.52;;;11.40;;
20629;SDS011;17386;43.846;25.950;2023-10-13T15:08:57;41.38;;;12.10;;
20629;SDS011;17386;43.846;25.950;2023-10-13T15:11:23;43.25;;;16.95;;
20629;SDS011;17386;43.846;25.950;2023-10-13T15:13:54;49.58;;;20.35;;
20629;SDS011;17386;43.846;25.950;2023-10-13T15:16:21;48.05;;;17.90;;
20629;SDS011;17386;43.846;25.950;2023-10-13T15:18:48;53.35;;;21.15;;
20629;SDS011;17386;43.846;25.950;2023-10-13T15:21:27;55.65;;;20.73;;
20629;SDS011;17386;43.846;25.950;2023-10-13T15:23:57;46.10;;;17.98;;
20629;SDS011;17386;43.846;25.950;2023-10-13T15:26:31;48.88;;;16.50;;
20629;SDS011;17386;43.846;25.950;2023-10-13T15:31:28;37.78;;;14.40;;
20629;SDS011;17386;43.846;25.950;2023-10-13T15:34:01;34.60;;;16.73;;
20629;SDS011;17386;43.846;25.950;2023-10-13T15:36:37;43.10;;;17.52;;
20629;SDS011;17386;43.846;25.950;2023-10-13T15:39:04;45.40;;;17.17;;
20629;SDS011;17386;43.846;25.950;2023-10-13T15:41:35;51.42;;;18.00;;
20629;SDS011;17386;43.846;25.950;2023-10-13T15:44:03;62.17;;;19.00;;
20629;SDS011;17386;43.846;25.950;2023-10-13T15:46:31;51.55;;;18.23;;